Time;durP1;ratioP1;P1;durP2;ratioP2;P2;SDS_P1;SDS_P2;PMS_P1;PMS_P2;Temp;Humidity;BMP_temperature;BMP_pressure;BME280_temperature;BME280_humidity;BME280_pressure;Samples;Min_cycle;Max_cycle;Signal;HPM_P1;HPM_P2
2024/01/04 00:00:23;;;;;;;8.68;5.40;;;5.10;99.90;;;;;;5090602;28;20050;-78
2024/01/04 00:02:52;;;;;;;11.88;5.07;;;5.10;99.90;;;;;;5090230;28;20512;-78
2024/01/04 00:05:18;;;;;;;9.23;5.35;;;5.10;99.90;;;;;;5092905;28;20031;-78
2024/01/04 00:07:44;;;;;;;9.90;5.35;;;5.10;99.90;;;;;;5091428;28;20199;-78
2024/01/04 00:10:12;;;;;;;12.48;6.05;;;5.10;99.90;;;;;;5093272;28;20305;-78
2024/01/04 00:12:38;;;;;;;8.88;5.05;;;5.10;99.90;;;;;;5096127;28;20031;-77
2024/01/04 00:15:04;;;;;;;11.75;5.78;;;5.00;99.90;;;;;;5093947;28;20046;-78
2024/01/04 00:17:30;;;;;;;7.70;5.43;;;5.00;99.90;;;;;;5093720;28;20038;-78
2024/01/04 00:19:56;;;;;;;7.78;4.90;;;5.00;99.90;;;;;;5078958;28;20031;-78
2024/01/04 00:22:22;;;;;;;10.30;4.70;;;5.10;99.90;;;;;;5095533;28;20165;-77
2024/01/04 00:24:48;;;;;;;10.07;5.55;;;5.10;99.90;;;;;;5095371;28;20509;-78
2024/01/04 00:27:14;;;;;;;10.15;6.57;;;5.10;99.90;;;;;;5096556;28;20039;-78
2024/01/04 00:29:41;;;;;;;11.43;5.50;;;5.00;99.90;;;;;;5095419;28;20043;-78
2024/01/04 00:32:07;;;;;;;6.55;4.75;;;4.90;99.90;;;;;;5094760;28;20119;-78
2024/01/04 00:34:33;;;;;;;10.30;5.15;;;4.90;99.90;;;;;;5095072;28;20671;-78
2024/01/04 00:36:59;;;;;;;8.55;4.95;;;4.90;99.90;;;;;;5092127;28;20493;-78
2024/01/04 00:39:25;;;;;;;9.70;5.60;;;4.90;99.90;;;;;;5092657;28;20036;-78
2024/01/04 00:41:51;;;;;;;10.38;5.47;;;5.10;99.90;;;;;;5094331;28;20041;-79
2024/01/04 00:44:17;;;;;;;11.23;5.65;;;5.00;99.90;;;;;;5094241;28;20058;-78
2024/01/04 00:46:43;;;;;;;8.52;5.18;;;4.90;99.90;;;;;;5094334;28;20036;-77
2024/01/04 00:49:09;;;;;;;14.77;5.22;;;4.90;99.90;;;;;;5093965;28;20531;-78
2024/01/04 00:51:34;;;;;;;9.65;5.40;;;4.90;99.90;;;;;;5095080;28;20509;-78
2024/01/04 00:54:02;;;;;;;10.95;5.35;;;4.70;99.90;;;;;;5094502;28;20032;-78
2024/01/04 00:56:33;;;;;;;13.02;5.25;;;4.50;99.90;;;;;;5095384;28;20059;-78
2024/01/04 00:59:02;;;;;;;7.80;4.88;;;4.40;99.90;;;;;;5094021;28;20457;-78
2024/01/04 01:01:28;;;;;;;8.55;4.88;;;4.40;99.90;;;;;;5094354;28;20779;-78
2024/01/04 01:03:54;;;;;;;10.18;5.28;;;4.50;99.90;;;;;;5094922;28;20562;-78
2024/01/04 01:06:20;;;;;;;10.02;6.30;;;4.40;99.90;;;;;;5094422;28;20027;-78
2024/01/04 01:08:46;;;;;;;9.20;4.85;;;4.20;99.90;;;;;;5092576;28;20785;-78
2024/01/04 01:11:12;;;;;;;11.85;5.72;;;4.20;99.90;;;;;;5094448;28;20048;-78
2024/01/04 01:13:37;;;;;;;10.35;5.70;;;4.20;99.90;;;;;;5093540;28;21136;-77
2024/01/04 01:16:03;;;;;;;8.52;5.65;;;4.20;99.90;;;;;;5092546;28;20069;-78
2024/01/04 01:18:30;;;;;;;9.13;5.65;;;4.20;99.90;;;;;;5094335;28;20032;-77
2024/01/04 01:20:55;;;;;;;8.27;4.43;;;4.20;99.90;;;;;;5095268;28;20012;-78
2024/01/04 01:23:21;;;;;;;10.60;5.35;;;4.30;99.90;;;;;;5094046;28;20031;-78
2024/01/04 01:25:47;;;;;;;7.40;4.93;;;4.30;99.90;;;;;;5094674;28;20031;-79
2024/01/04 01:28:12;;;;;;;7.38;5.03;;;4.30;99.90;;;;;;5095350;28;20042;-78
2024/01/04 01:30:38;;;;;;;10.82;5.03;;;4.30;99.90;;;;;;5093796;28;20047;-78
2024/01/04 01:33:04;;;;;;;11.45;5.72;;;4.30;99.90;;;;;;5094680;28;20388;-78
2024/01/04 01:35:29;;;;;;;10.90;5.70;;;4.10;99.90;;;;;;5095396;28;20513;-77
2024/01/04 01:37:55;;;;;;;7.95;5.10;;;4.10;99.90;;;;;;5093794;28;20606;-78
2024/01/04 01:40:21;;;;;;;11.52;5.18;;;4.10;99.90;;;;;;5074503;28;20509;-78
2024/01/04 01:42:48;;;;;;;10.02;5.35;;;4.10;99.90;;;;;;5095301;28;20036;-77
2024/01/04 01:45:15;;;;;;;9.07;5.10;;;4.10;99.90;;;;;;5091519;28;20059;-78
2024/01/04 01:47:41;;;;;;;7.57;4.50;;;4.30;99.90;;;;;;5093376;28;20603;-78
2024/01/04 01:50:09;;;;;;;9.20;4.90;;;4.30;99.90;;;;;;5094830;28;20036;-79
2024/01/04 01:52:36;;;;;;;7.25;4.53;;;4.30;99.90;;;;;;5093329;28;20108;-78
2024/01/04 01:55:09;;;;;;;7.63;4.70;;;4.30;99.90;;;;;;5093997;28;20509;-78
2024/01/04 01:57:35;;;;;;;6.93;5.05;;;4.10;99.90;;;;;;5095099;28;20072;-78
2024/01/04 02:00:02;;;;;;;8.52;5.00;;;4.20;99.90;;;;;;5094782;28;20039;-78
2024/01/04 02:02:28;;;;;;;7.75;4.47;;;4.30;99.90;;;;;;5093534;28;20031;-78
2024/01/04 02:04:54;;;;;;;8.57;5.47;;;4.20;99.90;;;;;;5095503;28;20023;-77
2024/01/04 02:07:20;;;;;;;9.75;5.13;;;4.20;99.90;;;;;;5093447;28;20032;-78
2024/01/04 02:09:45;;;;;;;10.57;5.22;;;4.20;99.90;;;;;;5094369;28;20173;-78
2024/01/04 02:12:15;;;;;;;7.63;4.90;;;4.20;99.90;;;;;;5094228;28;20032;-78
2024/01/04 02:14:41;;;;;;;7.22;4.40;;;4.20;99.90;;;;;;5093042;28;20042;-78
2024/01/04 02:17:07;;;;;;;10.93;4.82;;;4.20;99.90;;;;;;5093489;28;20032;-77
2024/01/04 02:19:33;;;;;;;8.13;5.07;;;4.40;99.90;;;;;;5094825;28;20605;-78
2024/01/04 02:21:59;;;;;;;7.90;4.00;;;4.40;99.90;;;;;;5093742;28;20090;-78
2024/01/04 02:24:25;;;;;;;10.23;5.93;;;4.30;99.90;;;;;;5093887;28;20552;-78
2024/01/04 02:26:52;;;;;;;7.60;4.80;;;4.30;99.90;;;;;;5096486;28;20063;-78
2024/01/04 02:29:17;;;;;;;8.77;4.40;;;4.20;99.90;;;;;;5097100;28;20044;-78
2024/01/04 02:31:44;;;;;;;6.70;4.82;;;4.10;99.90;;;;;;5097101;28;20028;-78
2024/01/04 02:34:10;;;;;;;7.95;4.85;;;4.10;99.90;;;;;;5098282;28;20461;-77
2024/01/04 02:36:35;;;;;;;8.50;4.97;;;3.90;99.90;;;;;;5097188;28;20299;-78
2024/01/04 02:39:01;;;;;;;7.30;4.68;;;3.90;99.90;;;;;;5091933;28;20028;-78
2024/01/04 02:41:26;;;;;;;7.28;4.65;;;3.70;99.90;;;;;;5096107;28;20051;-77
2024/01/04 02:43:52;;;;;;;9.52;5.18;;;3.70;99.90;;;;;;5094937;28;20040;-77
2024/01/04 02:46:18;;;;;;;9.73;4.93;;;3.60;99.90;;;;;;5094338;28;20039;-78
2024/01/04 02:48:43;;;;;;;7.05;4.38;;;3.50;99.90;;;;;;5091604;28;20027;-77
2024/01/04 02:51:09;;;;;;;8.27;4.80;;;3.60;99.90;;;;;;5095822;28;20588;-78
2024/01/04 02:53:35;;;;;;;9.60;4.65;;;3.50;99.90;;;;;;5096554;28;20028;-78
2024/01/04 02:56:01;;;;;;;7.88;4.93;;;3.50;99.90;;;;;;5098538;28;20061;-77
2024/01/04 02:58:27;;;;;;;9.40;4.63;;;3.50;99.90;;;;;;5096906;28;20036;-78
2024/01/04 03:00:53;;;;;;;9.18;5.05;;;3.30;99.90;;;;;;5097285;28;20040;-78
2024/01/04 03:03:18;;;;;;;8.02;4.70;;;3.20;99.90;;;;;;5097835;28;20393;-77
2024/01/04 03:05:44;;;;;;;8.65;4.85;;;3.30;99.90;;;;;;5096748;28;20024;-78
2024/01/04 03:08:10;;;;;;;8.65;4.90;;;3.40;99.90;;;;;;5096190;28;20449;-78
2024/01/04 03:10:35;;;;;;;8.75;4.55;;;3.40;99.90;;;;;;5097149;28;20066;-78
2024/01/04 03:13:03;;;;;;;8.75;5.70;;;3.50;99.90;;;;;;5096097;28;20083;-77
2024/01/04 03:15:29;;;;;;;7.97;4.85;;;3.40;99.90;;;;;;5096044;28;20034;-78
2024/01/04 03:17:54;;;;;;;9.23;5.00;;;3.30;99.90;;;;;;5093088;28;20020;-77
2024/01/04 03:20:20;;;;;;;7.07;4.68;;;3.40;99.90;;;;;;5095622;28;20043;-78
2024/01/04 03:22:46;;;;;;;7.60;4.70;;;3.40;99.90;;;;;;5093304;28;20382;-78
2024/01/04 03:25:13;;;;;;;7.20;4.40;;;3.30;99.90;;;;;;5096118;28;20500;-78
2024/01/04 03:27:38;;;;;;;9.73;5.05;;;3.20;99.90;;;;;;5095191;28;20028;-78
2024/01/04 03:30:05;;;;;;;9.32;5.35;;;3.20;99.90;;;;;;5094913;28;20043;-78
2024/01/04 03:32:30;;;;;;;11.90;5.90;;;3.20;99.90;;;;;;5096432;28;20114;-77
2024/01/04 03:34:56;;;;;;;8.10;4.80;;;3.10;99.90;;;;;;5094568;28;20088;-78
2024/01/04 03:37:22;;;;;;;8.63;4.57;;;3.00;99.90;;;;;;5093710;28;20031;-77
2024/01/04 03:39:47;;;;;;;10.32;4.50;;;3.00;99.90;;;;;;5094242;28;20744;-77
2024/01/04 03:42:15;;;;;;;10.50;5.70;;;3.20;99.90;;;;;;5094963;28;20032;-78
2024/01/04 03:44:42;;;;;;;10.55;5.22;;;3.30;99.90;;;;;;5095543;28;20481;-77
2024/01/04 03:47:08;;;;;;;9.88;5.25;;;3.40;99.90;;;;;;5078313;28;20031;-77
2024/01/04 03:49:33;;;;;;;10.30;5.65;;;3.50;99.90;;;;;;5096256;28;20035;-78
2024/01/04 03:51:59;;;;;;;9.52;5.72;;;3.50;99.90;;;;;;5095624;28;20042;-78
2024/01/04 03:54:25;;;;;;;10.57;6.03;;;3.60;99.90;;;;;;5096944;28;20379;-77
2024/01/04 03:56:51;;;;;;;8.30;4.75;;;3.70;99.90;;;;;;5094890;28;20027;-78
2024/01/04 03:59:17;;;;;;;8.70;5.00;;;3.50;99.90;;;;;;5092253;28;20059;-77
2024/01/04 04:01:45;;;;;;;8.55;5.03;;;3.60;99.90;;;;;;5095730;28;20500;-77
2024/01/04 04:04:11;;;;;;;9.95;5.78;;;3.70;99.90;;;;;;5089181;28;20101;-78
2024/01/04 04:06:36;;;;;;;10.60;4.82;;;3.80;99.90;;;;;;5087450;28;20670;-78
2024/01/04 04:09:02;;;;;;;7.65;4.72;;;3.70;99.90;;;;;;5089285;28;20092;-78
2024/01/04 04:11:28;;;;;;;10.05;5.47;;;3.60;99.90;;;;;;5089792;28;20107;-78
2024/01/04 04:13:54;;;;;;;8.52;4.47;;;3.80;99.90;;;;;;5091081;28;20127;-79
2024/01/04 04:16:19;;;;;;;8.93;4.70;;;3.70;99.90;;;;;;5092127;28;20041;-79
2024/01/04 04:18:45;;;;;;;7.95;4.60;;;3.60;99.90;;;;;;5083640;28;20028;-78
2024/01/04 04:21:24;;;;;;;6.38;4.15;;;3.40;99.90;;;;;;5087774;28;20746;-79
2024/01/04 04:23:50;;;;;;;9.25;4.53;;;3.40;99.90;;;;;;5070105;28;20084;-78
2024/01/04 04:26:20;;;;;;;11.85;4.80;;;3.20;99.90;;;;;;5088869;28;20040;-79
2024/01/04 04:28:47;;;;;;;7.97;4.47;;;3.00;99.90;;;;;;5086846;28;20088;-78
2024/01/04 04:31:16;;;;;;;10.80;5.10;;;2.90;99.90;;;;;;5089910;28;21096;-78
2024/01/04 04:33:44;;;;;;;8.07;5.60;;;3.10;99.90;;;;;;5091115;28;20031;-78
2024/01/04 04:36:10;;;;;;;8.13;5.20;;;3.10;99.90;;;;;;5086260;28;20046;-79
2024/01/04 04:38:36;;;;;;;8.88;4.63;;;3.00;99.90;;;;;;5089102;28;21095;-78
2024/01/04 04:41:05;;;;;;;7.53;4.97;;;2.90;99.90;;;;;;5088845;28;20051;-78
2024/01/04 04:43:34;;;;;;;8.60;4.97;;;3.00;99.90;;;;;;5089924;28;20043;-79
2024/01/04 04:46:02;;;;;;;8.57;4.63;;;3.10;99.90;;;;;;5087967;28;20043;-77
2024/01/04 04:48:27;;;;;;;9.40;4.93;;;2.90;99.90;;;;;;5088186;28;20024;-79
2024/01/04 04:50:54;;;;;;;10.07;4.78;;;2.80;99.90;;;;;;5090005;28;20043;-77
2024/01/04 04:53:22;;;;;;;6.25;4.35;;;2.80;99.90;;;;;;5089884;28;20565;-77
2024/01/04 04:55:48;;;;;;;9.13;4.50;;;2.90;99.90;;;;;;5090541;28;21440;-78
2024/01/04 04:58:14;;;;;;;7.70;4.03;;;3.10;99.90;;;;;;5091372;28;20998;-78
2024/01/04 05:00:40;;;;;;;9.70;4.75;;;3.30;99.90;;;;;;5088683;28;20165;-78
2024/01/04 05:03:06;;;;;;;8.40;3.97;;;3.20;99.90;;;;;;5087771;28;20036;-78
2024/01/04 05:05:33;;;;;;;8.05;4.13;;;3.20;99.90;;;;;;5089762;28;20046;-78
2024/01/04 05:07:58;;;;;;;7.85;4.32;;;3.30;99.90;;;;;;5088180;28;20023;-77
2024/01/04 05:10:24;;;;;;;7.35;3.83;;;3.30;99.90;;;;;;5087310;28;20066;-78
2024/01/04 05:12:51;;;;;;;7.80;4.07;;;3.40;99.90;;;;;;5089545;28;20143;-78
2024/01/04 05:15:17;;;;;;;9.05;4.40;;;3.40;99.90;;;;;;5088897;28;20558;-78
2024/01/04 05:17:43;;;;;;;6.55;4.10;;;3.40;99.90;;;;;;5087194;28;20036;-78
2024/01/04 05:20:09;;;;;;;10.82;4.35;;;3.20;99.90;;;;;;5088839;28;20126;-78
2024/01/04 05:22:34;;;;;;;6.70;3.53;;;3.20;99.90;;;;;;5088843;28;20396;-79
2024/01/04 05:25:00;;;;;;;7.03;3.72;;;3.10;99.90;;;;;;5087777;28;20039;-78
2024/01/04 05:27:26;;;;;;;7.25;3.70;;;3.00;99.90;;;;;;5088383;28;20071;-78
2024/01/04 05:29:54;;;;;;;6.47;3.78;;;2.90;99.90;;;;;;5088544;28;20043;-78
2024/01/04 05:32:19;;;;;;;6.45;3.70;;;3.20;99.90;;;;;;5087567;28;21118;-77
2024/01/04 05:34:45;;;;;;;6.75;4.03;;;3.10;99.90;;;;;;5088643;28;20035;-78
2024/01/04 05:37:11;;;;;;;9.23;4.15;;;3.30;99.90;;;;;;5088862;28;20504;-78
2024/01/04 05:39:36;;;;;;;6.80;3.88;;;3.40;99.90;;;;;;5086819;28;20730;-77
2024/01/04 05:42:02;;;;;;;6.53;4.28;;;3.50;99.90;;;;;;5087944;28;20028;-78
2024/01/04 05:44:28;;;;;;;5.63;3.65;;;3.30;99.90;;;;;;5088626;28;20066;-78
2024/01/04 05:46:54;;;;;;;7.50;3.65;;;3.30;99.90;;;;;;5087829;28;20032;-78
2024/01/04 05:49:19;;;;;;;7.30;3.72;;;3.30;99.90;;;;;;5087525;28;22117;-78
2024/01/04 05:51:45;;;;;;;7.15;3.53;;;3.10;99.90;;;;;;5089455;28;20040;-78
2024/01/04 05:54:11;;;;;;;6.32;3.97;;;3.10;99.90;;;;;;5084397;28;20135;-78
2024/01/04 05:56:37;;;;;;;7.70;3.50;;;3.40;99.90;;;;;;5088614;28;20031;-78
2024/01/04 05:59:02;;;;;;;7.10;3.65;;;3.60;99.90;;;;;;5086589;28;20264;-77
2024/01/04 06:01:28;;;;;;;8.50;4.53;;;3.50;99.90;;;;;;5085701;28;20046;-78
2024/01/04 06:03:54;;;;;;;6.72;3.85;;;3.50;99.90;;;;;;5091573;28;20038;-77
2024/01/04 06:06:20;;;;;;;8.07;4.15;;;3.50;99.90;;;;;;5092887;28;20031;-78
2024/01/04 06:08:45;;;;;;;7.35;3.75;;;3.50;99.90;;;;;;5091615;28;21062;-77
2024/01/04 06:11:11;;;;;;;6.47;3.63;;;3.40;99.90;;;;;;5092140;28;20615;-78
2024/01/04 06:13:37;;;;;;;8.60;3.90;;;3.20;99.90;;;;;;5092167;28;20123;-78
2024/01/04 06:16:07;;;;;;;11.32;4.53;;;3.10;99.90;;;;;;5090579;28;20023;-77
2024/01/04 06:18:33;;;;;;;8.02;3.80;;;3.10;99.90;;;;;;5094842;28;20031;-78
2024/01/04 06:20:59;;;;;;;6.38;3.70;;;3.10;99.90;;;;;;5091456;28;20080;-74
2024/01/04 06:23:25;;;;;;;7.70;3.53;;;3.10;99.90;;;;;;5090981;28;20725;-75
2024/01/04 06:25:50;;;;;;;8.77;4.10;;;3.10;99.90;;;;;;5088786;28;20045;-74
2024/01/04 06:28:16;;;;;;;8.27;4.22;;;3.10;99.90;;;;;;5092264;28;20039;-76
2024/01/04 06:30:42;;;;;;;7.25;4.50;;;3.20;99.90;;;;;;5091050;28;20598;-75
2024/01/04 06:33:07;;;;;;;5.05;3.42;;;3.00;99.90;;;;;;5091226;28;20036;-75
2024/01/04 06:35:33;;;;;;;7.07;4.28;;;3.00;99.90;;;;;;5090687;28;20114;-75
2024/01/04 06:37:59;;;;;;;7.35;4.00;;;3.00;99.90;;;;;;5090892;28;20039;-75
2024/01/04 06:40:24;;;;;;;7.25;3.92;;;2.90;99.90;;;;;;5091367;28;20225;-75
2024/01/04 06:42:55;;;;;;;7.22;3.80;;;2.80;99.90;;;;;;5092929;28;20035;-76
2024/01/04 06:45:22;;;;;;;7.70;4.70;;;2.80;99.90;;;;;;5090966;28;20135;-77
2024/01/04 06:47:48;;;;;;;11.15;4.65;;;3.10;99.90;;;;;;5091880;28;20038;-76
2024/01/04 06:50:14;;;;;;;7.40;4.00;;;3.20;99.90;;;;;;5092059;28;20108;-75
2024/01/04 06:52:39;;;;;;;6.28;3.72;;;3.30;99.90;;;;;;5091663;28;20707;-75
2024/01/04 06:55:05;;;;;;;7.05;3.85;;;3.20;99.90;;;;;;5090607;28;20062;-76
2024/01/04 06:57:31;;;;;;;6.60;3.83;;;3.20;99.90;;;;;;5091394;28;20587;-75
2024/01/04 06:59:57;;;;;;;7.32;4.13;;;3.10;99.90;;;;;;5090713;28;20040;-77
2024/01/04 07:02:22;;;;;;;8.00;3.90;;;2.90;99.90;;;;;;5090448;28;20028;-75
2024/01/04 07:04:48;;;;;;;6.60;3.67;;;2.70;99.90;;;;;;5096457;28;20023;-79
2024/01/04 07:07:14;;;;;;;6.03;3.67;;;2.70;99.90;;;;;;5097135;28;20051;-79
2024/01/04 07:09:39;;;;;;;7.20;4.38;;;2.80;99.90;;;;;;5090513;28;20099;-82
2024/01/04 07:12:06;;;;;;;8.18;4.22;;;2.90;99.90;;;;;;5089923;28;20036;-78
2024/01/04 07:14:32;;;;;;;7.97;4.13;;;3.00;99.90;;;;;;5091325;28;20128;-81
2024/01/04 07:16:57;;;;;;;7.82;3.90;;;3.10;99.90;;;;;;5090716;28;20440;-81
2024/01/04 07:19:23;;;;;;;6.55;3.60;;;3.10;99.90;;;;;;5090624;28;20024;-81
2024/01/04 07:21:49;;;;;;;9.98;4.95;;;3.10;99.90;;;;;;5091489;28;20036;-80
2024/01/04 07:24:16;;;;;;;7.68;4.03;;;3.20;99.90;;;;;;5090743;28;20020;-78
2024/01/04 07:26:41;;;;;;;7.70;4.63;;;3.30;99.90;;;;;;5092092;28;20054;-80
2024/01/04 07:29:07;;;;;;;6.95;3.58;;;3.20;99.90;;;;;;5089621;28;21879;-78
2024/01/04 07:31:33;;;;;;;7.60;4.45;;;3.20;99.90;;;;;;5090980;28;20043;-78
2024/01/04 07:34:00;;;;;;;7.38;3.90;;;3.10;99.90;;;;;;5091878;28;20078;-78
2024/01/04 07:36:26;;;;;;;10.07;4.35;;;3.10;99.90;;;;;;5089898;28;20035;-77
2024/01/04 07:38:51;;;;;;;10.55;4.65;;;3.10;99.90;;;;;;5090796;28;20035;-77
2024/01/04 07:41:17;;;;;;;6.90;4.32;;;3.20;99.90;;;;;;5091017;28;20043;-77
2024/01/04 07:43:43;;;;;;;8.15;3.75;;;3.10;99.90;;;;;;5090353;28;20046;-77
2024/01/04 07:46:08;;;;;;;8.38;4.22;;;3.00;99.90;;;;;;5089503;28;20019;-77
2024/01/04 07:48:34;;;;;;;6.60;4.00;;;3.00;99.90;;;;;;5091670;28;20088;-78
2024/01/04 07:51:00;;;;;;;8.93;4.10;;;3.10;99.90;;;;;;5089916;28;20032;-78
2024/01/04 07:53:26;;;;;;;7.22;4.32;;;3.00;99.90;;;;;;5089677;28;20188;-82
2024/01/04 07:55:51;;;;;;;8.63;4.32;;;2.90;99.90;;;;;;5090372;28;20031;-77
2024/01/04 07:58:17;;;;;;;6.55;3.67;;;2.90;99.90;;;;;;5088897;28;20644;-77
2024/01/04 08:00:43;;;;;;;6.35;3.85;;;2.90;99.90;;;;;;5087991;28;20030;-77
2024/01/04 08:03:08;;;;;;;8.50;4.13;;;2.80;99.90;;;;;;5088923;28;20034;-78
2024/01/04 08:05:34;;;;;;;8.43;4.28;;;2.80;99.90;;;;;;5088868;28;21162;-77
2024/01/04 08:08:00;;;;;;;11.73;4.47;;;2.90;99.90;;;;;;5088001;28;20096;-77
2024/01/04 08:10:26;;;;;;;8.50;4.38;;;2.70;99.90;;;;;;5090055;28;20040;-77
2024/01/04 08:12:51;;;;;;;8.00;4.70;;;2.80;99.90;;;;;;5087795;28;20374;-77
2024/01/04 08:15:17;;;;;;;8.02;4.68;;;3.00;99.90;;;;;;5088574;28;20057;-77
2024/01/04 08:17:43;;;;;;;8.70;4.00;;;3.10;99.90;;;;;;5089766;28;20058;-77
2024/01/04 08:20:09;;;;;;;8.05;4.13;;;3.00;99.90;;;;;;5085211;28;20073;-77
2024/01/04 08:22:35;;;;;;;8.15;4.60;;;3.10;99.90;;;;;;5087645;28;20035;-82
2024/01/04 08:25:00;;;;;;;6.45;4.32;;;3.10;99.90;;;;;;5089053;28;20042;-77
2024/01/04 08:27:26;;;;;;;8.40;3.85;;;3.10;99.90;;;;;;5088290;28;20111;-77
2024/01/04 08:29:52;;;;;;;7.53;4.30;;;3.10;99.90;;;;;;5088425;28;20043;-78
2024/01/04 08:32:18;;;;;;;7.68;4.00;;;3.20;99.90;;;;;;5085678;28;20097;-80
2024/01/04 08:34:44;;;;;;;7.47;4.50;;;3.20;99.90;;;;;;5088383;28;20027;-79
2024/01/04 08:37:10;;;;;;;7.90;4.50;;;3.30;99.90;;;;;;5082292;28;20377;-77
2024/01/04 08:39:36;;;;;;;8.38;4.22;;;3.40;99.90;;;;;;5089505;28;20069;-77
2024/01/04 08:42:04;;;;;;;7.80;4.45;;;3.30;99.90;;;;;;5088374;28;20031;-78
2024/01/04 08:44:29;;;;;;;9.00;5.35;;;3.20;99.90;;;;;;5088143;28;20027;-78
2024/01/04 08:46:55;;;;;;;7.85;4.82;;;3.20;99.90;;;;;;5089670;28;20059;-78
2024/01/04 08:49:21;;;;;;;10.30;4.85;;;3.30;99.90;;;;;;5088470;28;20583;-82
2024/01/04 08:51:46;;;;;;;7.72;4.80;;;3.20;99.90;;;;;;5088364;28;20039;-78
2024/01/04 08:54:12;;;;;;;9.40;5.40;;;3.20;99.90;;;;;;5090206;28;20100;-79
2024/01/04 08:56:37;;;;;;;10.25;5.45;;;3.00;99.90;;;;;;5085990;28;20043;-78
2024/01/04 08:59:03;;;;;;;8.55;5.15;;;3.20;99.90;;;;;;5087160;28;20035;-78
2024/01/04 09:01:29;;;;;;;9.63;4.93;;;3.20;99.90;;;;;;5089418;28;20031;-80
2024/01/04 09:03:56;;;;;;;6.85;4.68;;;3.30;99.90;;;;;;5083585;28;21143;-80
2024/01/04 09:06:22;;;;;;;11.85;4.60;;;3.30;99.90;;;;;;5085344;28;20039;-79
2024/01/04 09:08:51;;;;;;;9.93;5.10;;;3.40;99.90;;;;;;5086841;28;20611;-79
2024/01/04 09:11:17;;;;;;;7.22;3.80;;;3.30;99.90;;;;;;5086843;28;20050;-78
2024/01/04 09:13:45;;;;;;;8.95;4.47;;;3.30;99.90;;;;;;5083967;28;20039;-78
2024/01/04 09:16:11;;;;;;;6.10;3.88;;;3.10;99.90;;;;;;5085696;28;20072;-79
2024/01/04 09:18:38;;;;;;;7.68;4.20;;;3.10;99.90;;;;;;5088048;28;20038;-80
2024/01/04 09:21:04;;;;;;;6.55;3.65;;;3.10;99.90;;;;;;5085863;28;20039;-78
2024/01/04 09:23:30;;;;;;;9.65;4.75;;;3.30;99.90;;;;;;5086845;28;20036;-79
2024/01/04 09:25:55;;;;;;;7.97;4.30;;;3.30;99.90;;;;;;5087069;28;20505;-81
2024/01/04 09:28:24;;;;;;;7.05;4.30;;;3.20;99.90;;;;;;5086100;28;20040;-78
2024/01/04 09:30:50;;;;;;;7.75;4.38;;;3.30;99.90;;;;;;5086580;28;20040;-79
2024/01/04 09:33:16;;;;;;;7.40;4.13;;;3.40;99.90;;;;;;5086624;28;20051;-81
2024/01/04 09:35:41;;;;;;;6.47;4.13;;;3.40;99.90;;;;;;5084337;28;20036;-80
2024/01/04 09:38:07;;;;;;;9.07;4.18;;;3.30;99.90;;;;;;5085160;28;20080;-78
2024/01/04 09:40:33;;;;;;;9.07;4.05;;;3.40;99.90;;;;;;5087133;28;20344;-80
2024/01/04 09:43:00;;;;;;;8.23;4.03;;;3.50;99.90;;;;;;5085919;28;20028;-78
2024/01/04 09:45:28;;;;;;;8.32;4.40;;;3.60;99.90;;;;;;5087911;28;20028;-78
2024/01/04 09:47:59;;;;;;;7.95;5.07;;;3.60;99.90;;;;;;5088141;28;20043;-80
2024/01/04 09:50:25;;;;;;;9.82;4.65;;;3.50;99.90;;;;;;5087792;28;20047;-79
2024/01/04 09:52:56;;;;;;;7.90;4.97;;;3.40;99.90;;;;;;5086285;28;20027;-79
2024/01/04 09:55:23;;;;;;;9.38;4.32;;;3.40;99.90;;;;;;5087956;28;20038;-79
2024/01/04 09:57:48;;;;;;;8.18;4.43;;;3.50;99.90;;;;;;5086857;28;20039;-79
2024/01/04 10:00:14;;;;;;;7.03;3.85;;;3.50;99.90;;;;;;5077473;28;21093;-79
2024/01/04 10:02:42;;;;;;;8.82;4.35;;;3.60;99.90;;;;;;5078736;28;20051;-79
2024/01/04 10:05:17;;;;;;;7.65;4.30;;;3.60;99.90;;;;;;5078257;28;20107;-79
2024/01/04 10:08:02;;;;;;;8.98;4.57;;;3.60;99.90;;;;;;5078129;28;20032;-82
2024/01/04 10:10:33;;;;;;;7.93;4.60;;;3.60;99.90;;;;;;5081319;28;21338;-79
2024/01/04 10:13:00;;;;;;;6.93;4.40;;;3.70;99.90;;;;;;5087889;28;20045;-79
2024/01/04 10:15:26;;;;;;;7.78;4.68;;;3.60;99.90;;;;;;5087461;28;20067;-78
2024/01/04 10:17:52;;;;;;;6.45;4.65;;;3.50;99.90;;;;;;5086040;28;20135;-79
2024/01/04 10:20:19;;;;;;;6.95;4.53;;;3.60;99.90;;;;;;5083757;28;20039;-78
2024/01/04 10:22:46;;;;;;;9.38;5.13;;;3.60;99.90;;;;;;5087265;28;20041;-78
2024/01/04 10:25:18;;;;;;;13.05;5.50;;;3.60;99.90;;;;;;5085644;28;20043;-80
2024/01/04 10:27:55;;;;;;;6.75;4.75;;;3.70;99.90;;;;;;5086937;28;20150;-81
2024/01/04 10:30:21;;;;;;;9.75;5.75;;;3.80;99.90;;;;;;5086258;28;21203;-77
2024/01/04 10:32:53;;;;;;;8.13;4.65;;;3.70;99.90;;;;;;5088827;28;20039;-79
2024/01/04 10:35:29;;;;;;;8.27;5.28;;;3.60;99.90;;;;;;5088565;28;20034;-78
2024/01/04 10:38:00;;;;;;;7.88;5.00;;;3.70;99.90;;;;;;5070224;28;20092;-77
2024/01/04 10:40:26;;;;;;;10.75;6.18;;;3.90;99.90;;;;;;5087198;28;20079;-78
2024/01/04 10:42:54;;;;;;;8.68;5.38;;;3.90;99.90;;;;;;5081122;28;20122;-80
2024/01/04 10:45:29;;;;;;;8.32;5.10;;;3.90;99.90;;;;;;5088052;28;20028;-78
2024/01/04 10:47:56;;;;;;;8.05;4.68;;;3.90;99.90;;;;;;5088535;28;20043;-78
2024/01/04 10:50:25;;;;;;;8.88;4.82;;;3.90;99.90;;;;;;5089993;28;20469;-78
2024/01/04 10:52:55;;;;;;;8.55;4.82;;;3.90;99.90;;;;;;5091142;28;20047;-79
2024/01/04 10:55:21;;;;;;;6.90;4.78;;;4.10;99.90;;;;;;5090870;28;20547;-80
2024/01/04 10:57:49;;;;;;;9.32;4.60;;;4.30;99.90;;;;;;5090262;28;20038;-79
2024/01/04 11:00:17;;;;;;;7.55;5.03;;;4.60;99.90;;;;;;5090187;28;20039;-78
2024/01/04 11:02:43;;;;;;;10.70;6.82;;;4.90;99.90;;;;;;5090318;28;20544;-79
2024/01/04 11:05:11;;;;;;;10.80;6.22;;;5.10;99.90;;;;;;5090147;28;20152;-78
2024/01/04 11:07:39;;;;;;;9.05;6.10;;;5.10;99.90;;;;;;5090451;28;20034;-79
2024/01/04 11:10:06;;;;;;;12.95;5.78;;;5.20;99.90;;;;;;5091508;28;20071;-79
2024/01/04 11:12:33;;;;;;;8.95;5.50;;;5.20;99.90;;;;;;5090057;28;20089;-79
2024/01/04 11:14:59;;;;;;;10.40;5.68;;;5.40;99.90;;;;;;5090474;28;20039;-79
2024/01/04 11:17:48;;;;;;;11.13;6.78;;;5.50;99.90;;;;;;5091384;28;20036;-80
2024/01/04 11:20:38;;;;;;;11.70;5.63;;;5.60;99.90;;;;;;5090545;28;21111;-78
2024/01/04 11:23:16;;;;;;;11.45;6.45;;;5.80;99.90;;;;;;5072388;28;20453;-85
2024/01/04 11:26:03;;;;;;;11.27;6.22;;;5.70;99.90;;;;;;5090544;28;20032;-79
2024/01/04 11:28:29;;;;;;;8.25;5.20;;;5.80;99.90;;;;;;5089610;28;20035;-79
2024/01/04 11:30:55;;;;;;;10.85;5.85;;;5.80;99.90;;;;;;5090496;28;20105;-79
2024/01/04 11:33:27;;;;;;;10.68;7.68;;;5.80;99.90;;;;;;5089347;28;21233;-79
2024/01/04 11:35:53;;;;;;;12.73;8.07;;;5.90;99.90;;;;;;5090057;28;20084;-78
2024/01/04 11:38:34;;;;;;;9.48;6.65;;;6.10;99.90;;;;;;5091153;28;20040;-77
2024/01/04 11:41:01;;;;;;;10.80;6.43;;;6.20;99.90;;;;;;5091393;28;20103;-77
2024/01/04 11:43:37;;;;;;;11.63;7.55;;;6.10;99.90;;;;;;5090056;28;20032;-78
2024/01/04 11:46:21;;;;;;;13.77;9.57;;;6.20;99.90;;;;;;5090076;28;20496;-77
2024/01/04 11:49:04;;;;;;;11.10;7.43;;;6.40;99.90;;;;;;5090139;28;20057;-78
2024/01/04 11:51:40;;;;;;;9.82;6.90;;;6.40;99.90;;;;;;5089732;28;20081;-76
2024/01/04 11:54:06;;;;;;;9.35;5.65;;;6.50;99.90;;;;;;5088994;28;20516;-76
2024/01/04 11:56:32;;;;;;;9.27;5.78;;;6.70;99.90;;;;;;5090621;28;20625;-77
2024/01/04 11:59:12;;;;;;;9.45;5.38;;;6.70;99.90;;;;;;5088577;28;20102;-76
2024/01/04 12:01:42;;;;;;;7.75;4.78;;;6.70;99.90;;;;;;5088015;28;20036;-76
2024/01/04 12:04:13;;;;;;;8.43;5.28;;;6.70;99.90;;;;;;5087740;28;20043;-76
2024/01/04 12:06:40;;;;;;;7.53;5.10;;;6.90;99.90;;;;;;5088480;28;20038;-79
2024/01/04 12:09:07;;;;;;;10.18;5.03;;;7.00;99.90;;;;;;5090042;28;20610;-76
2024/01/04 12:11:35;;;;;;;7.22;4.60;;;7.20;99.90;;;;;;5069715;28;20051;-80
2024/01/04 12:14:03;;;;;;;12.70;4.85;;;7.40;99.90;;;;;;5070537;28;20499;-75
2024/01/04 12:16:31;;;;;;;11.43;5.45;;;7.50;99.90;;;;;;5089069;28;20419;-77
2024/01/04 12:18:57;;;;;;;9.20;5.20;;;7.30;99.90;;;;;;5087640;28;20031;-75
2024/01/04 12:21:25;;;;;;;9.38;4.70;;;7.20;99.90;;;;;;5086994;28;20043;-76
2024/01/04 12:23:52;;;;;;;9.68;4.65;;;7.20;99.90;;;;;;5089348;28;20142;-77
2024/01/04 12:26:23;;;;;;;8.00;4.32;;;7.10;99.90;;;;;;5088062;28;20627;-75
2024/01/04 12:28:53;;;;;;;13.05;6.70;;;7.10;99.90;;;;;;5086949;28;20179;-76
2024/01/04 12:31:25;;;;;;;10.10;6.05;;;7.20;99.90;;;;;;5085825;28;20048;-76
2024/01/04 12:33:53;;;;;;;7.68;4.25;;;7.30;99.90;;;;;;5087333;28;20035;-75
2024/01/04 12:36:23;;;;;;;7.25;4.53;;;7.20;99.90;;;;;;5086786;28;20607;-75
2024/01/04 12:39:06;;;;;;;9.10;4.88;;;7.30;99.90;;;;;;5087191;28;20031;-75
2024/01/04 12:41:32;;;;;;;7.22;4.47;;;7.20;99.90;;;;;;5085412;28;20059;-74
2024/01/04 12:43:58;;;;;;;11.90;7.43;;;7.30;99.90;;;;;;5086781;28;20408;-75
2024/01/04 12:46:27;;;;;;;13.07;8.00;;;7.30;99.90;;;;;;5088603;28;20027;-73
2024/01/04 12:48:52;;;;;;;10.00;6.35;;;7.40;99.90;;;;;;5087397;28;20028;-74
2024/01/04 12:51:26;;;;;;;8.65;5.32;;;7.40;99.90;;;;;;5087412;28;20057;-74
2024/01/04 12:53:51;;;;;;;7.13;4.88;;;7.30;99.90;;;;;;5089001;28;20500;-74